createdAt,value
2022-12-03T00:00:43.388Z,15.07
2022-12-03T00:01:45.036Z,14.23
2022-12-03T00:02:46.834Z,14.47
2022-12-03T00:03:48.756Z,14.67
2022-12-03T00:04:50.941Z,13.00
2022-12-03T00:05:52.975Z,13.93
2022-12-03T00:06:54.752Z,13.17
2022-12-03T00:07:56.873Z,13.77
2022-12-03T00:08:58.707Z,13.37
2022-12-03T00:10:00.391Z,13.37
2022-12-03T00:11:02.100Z,14.27
2022-12-03T00:12:04.145Z,14.43
2022-12-03T00:13:05.877Z,14.40
2022-12-03T00:14:07.582Z,14.77
2022-12-03T00:15:10.109Z,13.87
2022-12-03T00:16:11.854Z,14.60
2022-12-03T00:17:13.752Z,15.00
2022-12-03T00:18:15.471Z,16.17
2022-12-03T00:19:17.137Z,15.43
2022-12-03T00:20:21.530Z,16.00
2022-12-03T00:21:24.744Z,15.40
2022-12-03T00:22:26.739Z,15.30
2022-12-03T00:23:28.541Z,15.10
2022-12-03T00:24:30.268Z,15.33
2022-12-03T00:25:32.125Z,16.33
2022-12-03T00:26:33.973Z,15.57
2022-12-03T00:27:35.738Z,14.57
2022-12-03T00:28:37.443Z,15.30
2022-12-03T00:29:39.513Z,15.80
2022-12-03T00:30:41.311Z,16.47
2022-12-03T00:31:45.561Z,14.67
2022-12-03T00:32:47.378Z,13.50
2022-12-03T00:33:50.267Z,14.23
2022-12-03T00:34:52.305Z,15.17
2022-12-03T00:35:54.245Z,16.60
2022-12-03T00:36:56.018Z,15.50
2022-12-03T00:37:57.755Z,16.03
2022-12-03T00:38:59.511Z,14.47
2022-12-03T00:40:02.808Z,15.33
2022-12-03T00:41:04.625Z,15.30
2022-12-03T00:42:06.370Z,16.27
2022-12-03T00:43:08.123Z,15.23
2022-12-03T00:44:10.460Z,15.67
2022-12-03T00:45:12.427Z,15.30
2022-12-03T00:46:19.674Z,15.80
2022-12-03T00:47:22.965Z,16.97
2022-12-03T00:48:24.735Z,16.77
2022-12-03T00:49:27.072Z,16.87
2022-12-03T00:50:28.962Z,16.00
2022-12-03T00:51:30.660Z,15.90
2022-12-03T00:52:32.409Z,15.30
2022-12-03T00:53:35.619Z,16.50
2022-12-03T00:54:37.398Z,17.00
2022-12-03T00:55:39.129Z,16.73
2022-12-03T00:56:41.382Z,16.80
2022-12-03T00:57:43.763Z,17.30
2022-12-03T00:58:46.213Z,16.50
2022-12-03T00:59:47.944Z,17.17
2022-12-03T01:00:49.637Z,16.63
2022-12-03T01:01:51.475Z,17.20
2022-12-03T01:02:53.417Z,17.37
2022-12-03T01:03:55.184Z,16.83
2022-12-03T01:04:57.297Z,15.43
2022-12-03T01:05:59.138Z,17.00
2022-12-03T01:07:01.347Z,17.23
2022-12-03T01:08:03.245Z,17.40
2022-12-03T01:09:05.054Z,16.20
2022-12-03T01:10:07.504Z,15.97
2022-12-03T01:11:29.126Z,16.87
2022-12-03T01:12:30.882Z,16.70
2022-12-03T01:13:32.603Z,17.43
2022-12-03T01:14:34.320Z,17.93
2022-12-03T01:15:36.286Z,17.50
2022-12-03T01:16:39.077Z,16.90
2022-12-03T01:17:40.801Z,16.87
2022-12-03T01:18:42.577Z,18.30
2022-12-03T01:19:48.274Z,16.93
2022-12-03T01:20:50.420Z,16.60
2022-12-03T01:21:52.631Z,17.80
2022-12-03T01:22:54.640Z,17.10
2022-12-03T01:23:57.052Z,16.13
2022-12-03T01:24:58.833Z,17.20
2022-12-03T01:26:00.509Z,17.23
2022-12-03T01:27:02.207Z,17.23
2022-12-03T01:28:03.979Z,17.17
2022-12-03T01:29:06.691Z,16.33
2022-12-03T01:30:10.949Z,17.27
2022-12-03T01:31:31.715Z,16.33
2022-12-03T01:32:33.698Z,17.23
2022-12-03T01:33:35.498Z,17.53
2022-12-03T01:34:37.265Z,16.77
2022-12-03T01:35:39.061Z,17.57
2022-12-03T01:36:41.440Z,17.63
2022-12-03T01:37:43.294Z,17.17
2022-12-03T01:38:45.048Z,17.40
2022-12-03T01:39:47.206Z,17.87
2022-12-03T01:40:49.932Z,17.03
2022-12-03T01:41:53.174Z,19.10
2022-12-03T01:42:55.217Z,18.17
2022-12-03T01:43:58.301Z,16.87
2022-12-03T01:45:00.726Z,17.47
2022-12-03T01:46:02.681Z,17.47
2022-12-03T01:47:06.905Z,16.93
2022-12-03T01:48:13.210Z,16.33
2022-12-03T01:49:31.421Z,17.40
2022-12-03T01:50:33.946Z,17.23
2022-12-03T01:51:35.927Z,16.37
2022-12-03T01:52:39.204Z,16.53
2022-12-03T01:53:41.599Z,16.70
2022-12-03T01:54:48.047Z,16.77
2022-12-03T01:55:49.844Z,15.93
2022-12-03T01:56:51.793Z,16.60
2022-12-03T01:57:56.898Z,16.63
2022-12-03T01:58:58.783Z,16.53
2022-12-03T02:00:01.262Z,17.33
2022-12-03T02:01:10.576Z,16.80
2022-12-03T02:02:14.767Z,17.60
2022-12-03T02:03:23.820Z,17.23
2022-12-03T02:04:25.637Z,17.83
2022-12-03T02:05:32.786Z,17.50
2022-12-03T02:06:34.666Z,17.13
2022-12-03T02:07:36.445Z,17.23
2022-12-03T02:08:40.131Z,17.47
2022-12-03T02:09:41.885Z,18.47
2022-12-03T02:10:43.580Z,17.77
2022-12-03T02:11:48.266Z,17.43
2022-12-03T02:12:53.364Z,16.93
2022-12-03T02:14:00.214Z,16.73
2022-12-03T02:15:02.905Z,17.53
2022-12-03T02:16:04.922Z,16.10
2022-12-03T02:17:07.637Z,17.50
2022-12-03T02:18:10.080Z,17.47
2022-12-03T02:19:24.981Z,16.53
2022-12-03T02:20:27.189Z,15.87
2022-12-03T02:21:28.845Z,16.50
2022-12-03T02:22:59.299Z,16.93
2022-12-03T02:24:47.131Z,15.73
2022-12-03T02:25:48.965Z,15.30
2022-12-03T02:26:50.754Z,16.07
2022-12-03T02:27:54.723Z,16.23
2022-12-03T02:28:57.118Z,16.77
2022-12-03T02:29:58.918Z,16.87
2022-12-03T02:31:00.717Z,16.87
2022-12-03T02:32:02.580Z,17.37
2022-12-03T02:33:04.916Z,16.10
2022-12-03T02:34:07.839Z,17.93
2022-12-03T02:35:17.943Z,16.40
2022-12-03T02:36:20.051Z,17.90
2022-12-03T02:37:32.326Z,18.10
2022-12-03T02:38:35.742Z,17.97
2022-12-03T02:39:40.956Z,16.83
2022-12-03T02:40:44.577Z,18.20
2022-12-03T02:42:04.835Z,16.37
2022-12-03T02:43:06.553Z,17.07
2022-12-03T02:44:09.162Z,17.90
2022-12-03T02:45:42.546Z,18.10
2022-12-03T02:46:44.354Z,17.07
2022-12-03T02:47:55.037Z,17.40
2022-12-03T02:48:57.388Z,17.67
2022-12-03T02:49:59.927Z,18.43
2022-12-03T02:51:05.183Z,17.80
2022-12-03T02:52:07.118Z,17.97
2022-12-03T02:53:20.155Z,17.03
2022-12-03T02:54:22.041Z,17.80
2022-12-03T02:55:24.383Z,18.27
2022-12-03T02:56:29.976Z,18.50
2022-12-03T02:57:32.197Z,16.87
2022-12-03T02:58:34.453Z,16.43
2022-12-03T02:59:36.200Z,17.53
2022-12-03T03:00:38.451Z,17.27
2022-12-03T03:01:40.362Z,16.47
2022-12-03T03:02:43.345Z,17.50
2022-12-03T03:03:47.228Z,16.77
2022-12-03T03:04:49.420Z,17.57
2022-12-03T03:05:51.693Z,16.97
2022-12-03T03:06:53.447Z,17.73
2022-12-03T03:07:58.277Z,18.27
2022-12-03T03:09:00.386Z,17.53
2022-12-03T03:10:03.207Z,17.93
2022-12-03T03:11:05.212Z,17.50
2022-12-03T03:12:07.091Z,17.50
2022-12-03T03:13:14.764Z,16.50
2022-12-03T03:14:16.552Z,17.50
2022-12-03T03:15:18.342Z,18.67
2022-12-03T03:16:20.177Z,17.00
2022-12-03T03:17:22.145Z,18.67
2022-12-03T03:18:24.093Z,18.30
2022-12-03T03:19:26.748Z,17.37
2022-12-03T03:20:28.571Z,17.37
2022-12-03T03:21:30.369Z,17.67
2022-12-03T03:22:38.222Z,17.23
2022-12-03T03:23:40.019Z,16.20
2022-12-03T03:24:41.775Z,16.73
2022-12-03T03:25:51.617Z,17.50
2022-12-03T03:26:53.492Z,16.73
2022-12-03T03:27:55.239Z,16.83
2022-12-03T03:29:00.264Z,15.67
2022-12-03T03:30:02.141Z,16.10
2022-12-03T03:31:05.645Z,16.03
2022-12-03T03:32:07.421Z,17.17
2022-12-03T03:33:09.981Z,16.13
2022-12-03T03:34:12.460Z,14.50
2022-12-03T03:35:14.756Z,15.53
2022-12-03T03:36:17.232Z,15.97
2022-12-03T03:37:19.084Z,15.83
2022-12-03T03:38:22.096Z,15.00
2022-12-03T03:39:24.234Z,15.83
2022-12-03T03:40:26.780Z,15.67
2022-12-03T03:41:29.911Z,15.47
2022-12-03T03:42:31.635Z,16.57
2022-12-03T03:43:34.949Z,15.27
2022-12-03T03:44:36.756Z,15.20
2022-12-03T03:45:38.584Z,14.70
2022-12-03T03:46:41.145Z,15.07
2022-12-03T03:47:43.269Z,17.10
2022-12-03T03:48:45.552Z,16.10
2022-12-03T03:49:49.562Z,16.03
2022-12-03T03:50:51.937Z,14.83
2022-12-03T03:51:53.873Z,16.03
2022-12-03T03:52:56.666Z,16.67
2022-12-03T03:53:58.592Z,16.87
2022-12-03T03:55:00.587Z,15.83
2022-12-03T03:56:02.441Z,17.30
2022-12-03T03:57:04.550Z,16.57
2022-12-03T03:58:06.643Z,17.53
2022-12-03T03:59:08.474Z,16.37
2022-12-03T04:00:10.984Z,16.50
2022-12-03T04:01:14.308Z,16.93
2022-12-03T04:02:20.680Z,16.33
2022-12-03T04:03:22.395Z,16.17
2022-12-03T04:04:29.176Z,15.50
2022-12-03T04:05:31.281Z,16.37
2022-12-03T04:06:33.016Z,16.27
2022-12-03T04:07:34.772Z,16.93
2022-12-03T04:08:36.454Z,15.90
2022-12-03T04:09:38.161Z,15.50
2022-12-03T04:10:58.345Z,15.27
2022-12-03T04:12:18.617Z,16.13
2022-12-03T04:13:20.504Z,15.77
2022-12-03T04:14:22.218Z,15.87
2022-12-03T04:15:25.172Z,16.33
2022-12-03T04:16:27.013Z,16.10
2022-12-03T04:17:28.837Z,15.03
2022-12-03T04:18:42.814Z,15.10
2022-12-03T04:19:44.596Z,15.07
2022-12-03T04:20:46.341Z,15.30
2022-12-03T04:22:06.801Z,15.40
2022-12-03T04:23:09.061Z,15.73
2022-12-03T04:24:11.788Z,15.37
2022-12-03T04:25:32.045Z,16.10
2022-12-03T04:26:52.486Z,14.50
2022-12-03T04:28:13.115Z,15.40
2022-12-03T04:29:15.039Z,15.17
2022-12-03T04:30:16.855Z,15.10
2022-12-03T04:31:37.031Z,14.67
2022-12-03T04:32:57.534Z,14.60
2022-12-03T04:34:17.983Z,16.13
2022-12-03T04:35:38.629Z,14.67
2022-12-03T04:36:40.462Z,14.20
2022-12-03T04:37:42.198Z,16.83
2022-12-03T04:38:43.943Z,16.60
2022-12-03T04:39:45.649Z,16.20
2022-12-03T04:41:00.678Z,15.90
2022-12-03T04:42:03.253Z,15.27
2022-12-03T04:43:04.955Z,16.17
2022-12-03T04:44:25.199Z,17.33
2022-12-03T04:45:26.941Z,15.17
2022-12-03T04:46:28.811Z,16.50
2022-12-03T04:47:32.345Z,17.47
2022-12-03T04:48:37.144Z,15.93
2022-12-03T04:49:43.908Z,15.77
2022-12-03T04:50:46.174Z,16.23
2022-12-03T04:51:48.007Z,15.73
2022-12-03T04:52:49.714Z,16.80
2022-12-03T04:53:51.416Z,16.27
2022-12-03T04:54:53.408Z,16.10
2022-12-03T04:55:55.343Z,16.67
2022-12-03T04:56:57.197Z,17.10
2022-12-03T04:57:59.267Z,16.37
2022-12-03T04:59:01.058Z,15.50
2022-12-03T05:00:04.165Z,15.77
2022-12-03T05:01:05.912Z,16.63
2022-12-03T05:02:08.587Z,16.23
2022-12-03T05:03:10.440Z,16.80
2022-12-03T05:04:13.563Z,16.03
2022-12-03T05:05:15.577Z,16.37
2022-12-03T05:06:17.307Z,16.23
2022-12-03T05:07:18.988Z,16.03
2022-12-03T05:08:20.754Z,15.90
2022-12-03T05:09:22.633Z,16.70
2022-12-03T05:10:24.437Z,16.10
2022-12-03T05:11:26.208Z,16.27
2022-12-03T05:12:27.958Z,17.10
2022-12-03T05:13:29.649Z,15.97
2022-12-03T05:14:31.335Z,15.40
2022-12-03T05:15:33.047Z,15.90
2022-12-03T05:16:35.008Z,15.97
2022-12-03T05:17:36.927Z,17.07
2022-12-03T05:18:38.639Z,15.17
2022-12-03T05:19:59.270Z,16.27
2022-12-03T05:21:00.939Z,15.63
2022-12-03T05:22:02.635Z,16.57
2022-12-03T05:23:04.410Z,15.07
2022-12-03T05:24:06.469Z,16.77
2022-12-03T05:25:08.692Z,15.23
2022-12-03T05:26:10.956Z,15.80
2022-12-03T05:27:12.706Z,15.23
2022-12-03T05:28:14.691Z,15.40
2022-12-03T05:29:16.408Z,15.27
2022-12-03T05:30:18.084Z,15.00
2022-12-03T05:31:19.822Z,15.60
2022-12-03T05:32:21.592Z,15.57
2022-12-03T05:33:23.332Z,15.47
2022-12-03T05:34:25.078Z,15.87
2022-12-03T05:35:26.988Z,15.57
2022-12-03T05:36:28.687Z,15.37
2022-12-03T05:37:30.605Z,16.07
2022-12-03T05:38:32.447Z,14.30
2022-12-03T05:39:34.248Z,15.10
2022-12-03T05:40:35.936Z,15.43
2022-12-03T05:41:56.150Z,15.23
2022-12-03T05:42:58.008Z,14.87
2022-12-03T05:43:59.699Z,15.73
2022-12-03T05:45:01.408Z,15.17
2022-12-03T05:46:03.255Z,16.00
2022-12-03T05:47:05.058Z,15.20
2022-12-03T05:48:09.986Z,15.77
2022-12-03T05:49:11.745Z,15.17
2022-12-03T05:50:13.769Z,14.33
2022-12-03T05:51:16.209Z,15.40
2022-12-03T05:52:17.911Z,14.87
2022-12-03T05:53:19.622Z,15.67
2022-12-03T05:54:21.367Z,15.43
2022-12-03T05:55:23.368Z,15.67
2022-12-03T05:56:25.115Z,15.23
2022-12-03T05:57:26.822Z,15.37
2022-12-03T05:58:28.585Z,16.10
2022-12-03T05:59:30.410Z,15.63
2022-12-03T06:00:42.401Z,15.83
2022-12-03T06:01:44.840Z,15.27
2022-12-03T06:02:46.678Z,15.73
2022-12-03T06:03:48.641Z,16.50
2022-12-03T06:04:50.658Z,15.40
2022-12-03T06:05:52.676Z,14.83
2022-12-03T06:06:54.452Z,14.57
2022-12-03T06:07:56.281Z,15.57
2022-12-03T06:08:57.973Z,15.40
2022-12-03T06:09:59.654Z,15.53
2022-12-03T06:11:01.423Z,15.23
2022-12-03T06:12:04.291Z,16.67
2022-12-03T06:13:06.058Z,16.03
2022-12-03T06:14:08.021Z,14.90
2022-12-03T06:15:10.823Z,15.40
2022-12-03T06:16:12.683Z,15.83
2022-12-03T06:17:14.569Z,15.13
2022-12-03T06:18:16.263Z,16.27
2022-12-03T06:19:18.172Z,16.23
2022-12-03T06:20:20.918Z,16.07
2022-12-03T06:21:22.675Z,16.13
2022-12-03T06:22:24.439Z,15.97
2022-12-03T06:23:26.161Z,15.60
2022-12-03T06:24:28.060Z,15.67
2022-12-03T06:25:29.795Z,16.37
2022-12-03T06:26:31.513Z,15.53
2022-12-03T06:27:33.372Z,15.90
2022-12-03T06:28:35.119Z,16.33
2022-12-03T06:29:36.893Z,16.30
2022-12-03T06:30:38.644Z,14.37
2022-12-03T06:31:40.501Z,14.80
2022-12-03T06:32:42.265Z,16.00
2022-12-03T06:33:43.963Z,16.50
2022-12-03T06:34:45.724Z,17.43
2022-12-03T06:35:47.508Z,16.50
2022-12-03T06:36:50.203Z,17.13
2022-12-03T06:37:52.028Z,15.97
2022-12-03T06:38:56.314Z,15.90
2022-12-03T06:39:58.135Z,16.50
2022-12-03T06:40:59.939Z,16.30
2022-12-03T06:42:01.774Z,16.50
2022-12-03T06:43:03.551Z,16.10
2022-12-03T06:44:05.491Z,16.83
2022-12-03T06:45:07.418Z,15.83
2022-12-03T06:46:09.203Z,17.13
2022-12-03T06:47:10.984Z,16.80
2022-12-03T06:48:12.639Z,15.97
2022-12-03T06:49:14.389Z,15.27
2022-12-03T06:50:16.227Z,16.20
2022-12-03T06:51:17.908Z,16.23
2022-12-03T06:52:19.799Z,15.70
2022-12-03T06:53:21.534Z,17.27
2022-12-03T06:54:23.349Z,15.90
2022-12-03T06:55:25.132Z,16.27
2022-12-03T06:56:31.159Z,16.87
2022-12-03T06:57:37.078Z,15.57
2022-12-03T06:58:38.739Z,16.47
2022-12-03T06:59:40.490Z,17.17
2022-12-03T07:00:42.202Z,15.63
2022-12-03T07:01:44.305Z,16.80
2022-12-03T07:02:46.144Z,16.13
2022-12-03T07:03:47.954Z,16.63
2022-12-03T07:04:49.676Z,15.97
2022-12-03T07:05:51.436Z,16.40
2022-12-03T07:06:53.201Z,16.43
2022-12-03T07:07:55.450Z,16.20
2022-12-03T07:08:57.366Z,16.43
2022-12-03T07:09:59.264Z,16.13
2022-12-03T07:11:01.211Z,16.30
2022-12-03T07:12:02.943Z,17.97
2022-12-03T07:13:04.656Z,16.70
2022-12-03T07:14:07.859Z,16.53
2022-12-03T07:15:10.383Z,16.27
2022-12-03T07:16:12.218Z,16.50
2022-12-03T07:17:14.145Z,15.37
2022-12-03T07:18:16.005Z,16.40
2022-12-03T07:19:17.748Z,16.50
2022-12-03T07:20:19.848Z,15.60
2022-12-03T07:21:21.595Z,15.70
2022-12-03T07:22:23.299Z,16.17
2022-12-03T07:23:25.022Z,16.50
2022-12-03T07:24:26.806Z,15.83
2022-12-03T07:25:28.992Z,16.70
2022-12-03T07:26:30.746Z,16.97
2022-12-03T07:27:32.495Z,16.13
2022-12-03T07:28:34.705Z,16.53
2022-12-03T07:29:36.411Z,15.47
2022-12-03T07:30:38.155Z,17.07
2022-12-03T07:31:39.884Z,16.80
2022-12-03T07:32:41.895Z,17.20
2022-12-03T07:33:43.622Z,15.37
2022-12-03T07:34:45.332Z,16.30
2022-12-03T07:35:47.012Z,16.23
2022-12-03T07:36:48.718Z,15.53
2022-12-03T07:37:50.453Z,16.77
2022-12-03T07:38:52.163Z,16.13
2022-12-03T07:39:54.619Z,17.77
2022-12-03T07:40:56.361Z,17.13
2022-12-03T07:41:58.144Z,16.20
2022-12-03T07:42:59.843Z,17.00
2022-12-03T07:44:01.568Z,16.53
2022-12-03T07:45:03.951Z,15.83
2022-12-03T07:46:05.861Z,16.40
2022-12-03T07:47:07.670Z,16.47
2022-12-03T07:48:09.446Z,16.43
2022-12-03T07:49:12.354Z,17.30
2022-12-03T07:50:14.234Z,18.40
2022-12-03T07:51:16.103Z,18.20
2022-12-03T07:52:17.789Z,19.50
2022-12-03T07:53:19.561Z,18.47
2022-12-03T07:54:21.827Z,17.33
2022-12-03T07:55:25.169Z,17.67
2022-12-03T07:56:26.944Z,18.37
2022-12-03T07:57:28.660Z,19.03
2022-12-03T07:58:30.848Z,17.63
2022-12-03T07:59:32.666Z,18.13
2022-12-03T08:00:34.506Z,18.23
2022-12-03T08:01:36.385Z,17.77
2022-12-03T08:02:38.406Z,19.43
2022-12-03T08:03:40.116Z,20.63
2022-12-03T08:04:41.833Z,19.70
2022-12-03T08:05:43.626Z,20.57
2022-12-03T08:06:46.007Z,22.87
2022-12-03T08:07:47.846Z,20.77
2022-12-03T08:08:49.634Z,20.77
2022-12-03T08:09:51.413Z,21.47
2022-12-03T08:10:53.139Z,20.63
2022-12-03T08:11:55.564Z,21.83
2022-12-03T08:12:59.088Z,20.17
2022-12-03T08:14:00.839Z,19.50
2022-12-03T08:15:05.487Z,19.27
2022-12-03T08:16:25.779Z,19.47
2022-12-03T08:17:28.460Z,18.00
2022-12-03T08:18:30.288Z,16.50
2022-12-03T08:19:31.958Z,18.93
2022-12-03T08:20:37.901Z,17.07
2022-12-03T08:21:40.230Z,17.10
2022-12-03T08:22:43.871Z,17.03
2022-12-03T08:23:45.694Z,16.90
2022-12-03T08:24:47.397Z,15.63
2022-12-03T08:25:51.330Z,16.20
2022-12-03T08:26:53.099Z,17.70
2022-12-03T08:28:03.448Z,16.03
2022-12-03T08:29:13.852Z,15.07
2022-12-03T08:30:17.328Z,14.50
2022-12-03T08:31:32.367Z,16.13
2022-12-03T08:32:34.817Z,15.53
2022-12-03T08:33:38.119Z,15.53
2022-12-03T08:34:44.178Z,15.47
2022-12-03T08:35:50.470Z,14.97
2022-12-03T08:36:58.772Z,15.53
2022-12-03T08:38:12.639Z,15.87
2022-12-03T08:39:35.795Z,15.37
2022-12-03T08:40:41.786Z,15.67
2022-12-03T08:42:02.025Z,14.43
2022-12-03T08:43:17.943Z,14.33
2022-12-03T08:44:25.594Z,15.53
2022-12-03T08:45:32.850Z,15.80
2022-12-03T08:46:34.550Z,15.73
2022-12-03T08:47:36.257Z,16.60
2022-12-03T08:48:40.715Z,15.67
2022-12-03T08:49:51.699Z,17.07
2022-12-03T08:50:55.932Z,16.00
2022-12-03T08:52:00.783Z,16.43
2022-12-03T08:53:14.520Z,16.27
2022-12-03T08:54:20.058Z,16.00
2022-12-03T08:55:51.668Z,16.53
2022-12-03T08:56:53.475Z,17.20
2022-12-03T08:57:55.170Z,17.00
2022-12-03T08:59:03.226Z,17.43
2022-12-03T09:00:23.668Z,17.00
2022-12-03T09:01:38.455Z,16.80
2022-12-03T09:02:47.372Z,17.30
2022-12-03T09:03:54.772Z,19.50
2022-12-03T09:04:56.881Z,17.17
2022-12-03T09:05:58.781Z,16.13
2022-12-03T09:07:00.811Z,17.67
2022-12-03T09:08:02.583Z,16.97
2022-12-03T09:09:06.918Z,16.50
2022-12-03T09:10:09.506Z,17.17
2022-12-03T09:11:11.211Z,16.70
2022-12-03T09:12:12.931Z,17.20
2022-12-03T09:13:14.655Z,17.23
2022-12-03T09:14:19.000Z,18.53
2022-12-03T09:15:20.877Z,17.40
2022-12-03T09:16:22.805Z,17.90
2022-12-03T09:17:26.596Z,16.60
2022-12-03T09:18:28.404Z,18.40
2022-12-03T09:19:31.208Z,17.20
2022-12-03T09:20:33.039Z,17.97
2022-12-03T09:21:34.797Z,23.73
2022-12-03T09:22:36.636Z,21.67
2022-12-03T09:23:38.656Z,18.13
2022-12-03T09:24:40.340Z,17.40
2022-12-03T09:25:42.035Z,16.00
2022-12-03T09:26:43.775Z,15.83
2022-12-03T09:27:45.841Z,17.07
2022-12-03T09:28:48.271Z,16.20
2022-12-03T09:29:51.100Z,16.67
2022-12-03T09:30:52.812Z,16.03
2022-12-03T09:31:54.549Z,16.90
2022-12-03T09:32:56.423Z,15.67
2022-12-03T09:33:58.200Z,15.03
2022-12-03T09:34:59.963Z,15.07
2022-12-03T09:36:01.783Z,15.23
2022-12-03T09:37:03.548Z,15.80
2022-12-03T09:38:05.302Z,17.50
2022-12-03T09:39:07.093Z,15.70
2022-12-03T09:40:09.740Z,15.67
2022-12-03T09:41:11.613Z,15.27
2022-12-03T09:42:13.530Z,15.80
2022-12-03T09:43:15.867Z,15.17
2022-12-03T09:44:18.424Z,14.43
2022-12-03T09:45:20.426Z,14.87
2022-12-03T09:46:22.888Z,14.77
2022-12-03T09:47:25.243Z,14.43
2022-12-03T09:48:27.034Z,15.53
2022-12-03T09:49:30.450Z,14.77
2022-12-03T09:50:32.444Z,15.20
2022-12-03T09:51:36.108Z,15.87
2022-12-03T09:52:38.342Z,14.50
2022-12-03T09:53:41.460Z,15.17
2022-12-03T09:54:47.271Z,15.30
2022-12-03T09:55:49.752Z,17.97
2022-12-03T09:56:53.414Z,16.23
2022-12-03T09:57:56.985Z,14.10
2022-12-03T09:58:59.176Z,13.67
2022-12-03T10:00:00.858Z,14.13
2022-12-03T10:01:02.659Z,14.60
2022-12-03T10:02:16.911Z,14.17
2022-12-03T10:03:29.539Z,14.77
2022-12-03T10:04:31.747Z,14.17
2022-12-03T10:05:34.679Z,13.00
2022-12-03T10:06:39.871Z,14.53
2022-12-03T10:07:46.851Z,13.77
2022-12-03T10:08:51.877Z,13.17
2022-12-03T10:09:53.804Z,12.37
2022-12-03T10:10:56.670Z,14.53
2022-12-03T10:11:59.813Z,13.30
2022-12-03T10:13:02.074Z,13.77
2022-12-03T10:14:04.756Z,13.00
2022-12-03T10:15:09.972Z,14.40
2022-12-03T10:16:15.344Z,13.70
2022-12-03T10:17:17.497Z,12.67
2022-12-03T10:18:31.061Z,13.27
2022-12-03T10:19:35.811Z,13.07
2022-12-03T10:20:37.634Z,13.57
2022-12-03T10:21:39.645Z,15.00
2022-12-03T10:22:41.386Z,14.43
2022-12-03T10:23:43.737Z,14.93
2022-12-03T10:24:45.534Z,13.43
2022-12-03T10:25:59.738Z,14.83
2022-12-03T10:27:28.947Z,13.87
2022-12-03T10:28:39.190Z,13.73
2022-12-03T10:29:40.943Z,15.10
2022-12-03T10:30:55.535Z,14.07
2022-12-03T10:32:01.785Z,14.50
2022-12-03T10:33:18.481Z,14.13
2022-12-03T10:34:41.303Z,13.20
2022-12-03T10:35:42.986Z,12.73
2022-12-03T10:36:44.670Z,13.67
2022-12-03T10:38:04.455Z,14.20
2022-12-03T10:39:08.924Z,13.87
2022-12-03T10:40:13.875Z,12.67
2022-12-03T10:41:27.554Z,13.90
2022-12-03T10:42:31.907Z,13.20
2022-12-03T10:43:33.572Z,12.33
2022-12-03T10:44:35.261Z,13.93
2022-12-03T10:45:37.022Z,13.20
2022-12-03T10:46:38.976Z,13.23
2022-12-03T10:47:41.727Z,13.70
2022-12-03T10:48:43.733Z,15.20
2022-12-03T10:50:00.811Z,15.23
2022-12-03T10:51:26.660Z,13.43
2022-12-03T10:52:28.358Z,13.60
2022-12-03T10:53:32.742Z,14.50
2022-12-03T10:54:35.244Z,14.77
2022-12-03T10:55:39.969Z,13.60
2022-12-03T10:56:41.806Z,12.87
2022-12-03T10:57:45.922Z,13.00
2022-12-03T10:58:48.072Z,13.50
2022-12-03T10:59:49.876Z,12.70
2022-12-03T11:00:53.365Z,12.63
2022-12-03T11:01:55.321Z,14.13
2022-12-03T11:02:57.522Z,12.63
2022-12-03T11:04:04.701Z,13.40
2022-12-03T11:05:06.825Z,13.57
2022-12-03T11:06:20.181Z,13.40
2022-12-03T11:07:23.867Z,14.00
2022-12-03T11:08:28.836Z,13.63
2022-12-03T11:09:33.252Z,13.37
2022-12-03T11:10:35.391Z,12.70
2022-12-03T11:11:37.234Z,12.27
2022-12-03T11:12:39.005Z,12.37
2022-12-03T11:13:40.697Z,13.70
2022-12-03T11:14:52.169Z,14.40
2022-12-03T11:15:54.599Z,14.07
2022-12-03T11:16:56.323Z,12.90
2022-12-03T11:17:58.337Z,12.83
2022-12-03T11:19:01.449Z,13.30
2022-12-03T11:20:03.632Z,13.37
2022-12-03T11:21:11.154Z,12.97
2022-12-03T11:22:12.866Z,13.00
2022-12-03T11:23:14.543Z,12.60
2022-12-03T11:24:19.747Z,12.87
2022-12-03T11:25:27.286Z,13.70
2022-12-03T11:26:28.899Z,12.13
2022-12-03T11:27:30.660Z,12.60
2022-12-03T11:28:34.320Z,12.13
2022-12-03T11:29:55.376Z,13.17
2022-12-03T11:31:02.327Z,16.10
2022-12-03T11:32:04.314Z,12.73
2022-12-03T11:33:21.624Z,13.30
2022-12-03T11:34:40.537Z,12.77
2022-12-03T11:36:31.669Z,12.60
2022-12-03T11:37:41.601Z,12.93
2022-12-03T11:38:52.860Z,12.37
2022-12-03T11:39:59.850Z,12.13
2022-12-03T11:41:07.763Z,12.43
2022-12-03T11:42:27.268Z,12.63
2022-12-03T11:43:55.933Z,12.40
2022-12-03T11:45:06.528Z,12.23
2022-12-03T11:46:10.583Z,11.80
2022-12-03T11:47:16.002Z,12.67
2022-12-03T11:48:18.658Z,11.33
2022-12-03T11:49:30.994Z,12.27
2022-12-03T11:50:40.445Z,11.77
2022-12-03T11:51:44.751Z,11.13
2022-12-03T11:52:49.561Z,11.30
2022-12-03T11:53:53.935Z,12.00
2022-12-03T11:55:13.818Z,10.93
2022-12-03T11:56:22.473Z,11.43
2022-12-03T11:57:31.300Z,11.97
2022-12-03T11:58:35.223Z,11.93
2022-12-03T11:59:56.120Z,12.77
2022-12-03T12:01:00.318Z,12.40
2022-12-03T12:02:19.747Z,12.87
2022-12-03T12:03:44.553Z,12.63
2022-12-03T12:04:49.078Z,12.90
2022-12-03T12:06:18.544Z,13.60
2022-12-03T12:07:38.556Z,12.17
2022-12-03T12:08:54.415Z,12.30
2022-12-03T12:09:57.151Z,11.10
2022-12-03T12:10:59.469Z,13.20
2022-12-03T12:12:18.998Z,12.57
2022-12-03T12:13:33.735Z,10.73
2022-12-03T12:14:35.455Z,11.63
2022-12-03T12:15:40.246Z,12.20
2022-12-03T12:16:45.965Z,11.73
2022-12-03T12:17:47.751Z,11.67
2022-12-03T12:18:55.227Z,11.47
2022-12-03T12:20:24.550Z,10.50
2022-12-03T12:21:49.948Z,12.10
2022-12-03T12:22:54.130Z,11.77
2022-12-03T12:23:55.923Z,11.47
2022-12-03T12:24:58.538Z,11.93
2022-12-03T12:26:06.652Z,11.70
2022-12-03T12:27:10.997Z,11.57
2022-12-03T12:28:12.716Z,11.80
2022-12-03T12:29:14.453Z,12.57
2022-12-03T12:30:19.726Z,12.50
2022-12-03T12:31:21.589Z,12.93
2022-12-03T12:32:26.500Z,12.57
2022-12-03T12:33:28.222Z,12.40
2022-12-03T12:34:31.292Z,12.37
2022-12-03T12:35:33.022Z,12.10
2022-12-03T12:36:34.996Z,12.30
2022-12-03T12:37:59.149Z,12.30
2022-12-03T12:39:01.676Z,11.73
2022-12-03T12:40:13.288Z,12.53
2022-12-03T12:41:15.023Z,11.87
2022-12-03T12:42:35.251Z,12.13
2022-12-03T12:43:39.498Z,11.20
2022-12-03T12:44:41.805Z,11.80
2022-12-03T12:45:44.104Z,12.27
2022-12-03T12:46:48.661Z,12.93
2022-12-03T12:48:01.839Z,12.80
2022-12-03T12:49:11.463Z,13.40
2022-12-03T12:50:14.739Z,12.83
2022-12-03T12:51:18.797Z,12.67
2022-12-03T12:52:20.519Z,12.53
2022-12-03T12:53:32.178Z,12.73
2022-12-03T12:54:33.957Z,13.97
2022-12-03T12:55:35.623Z,12.40
2022-12-03T12:56:37.566Z,13.03
2022-12-03T12:57:39.417Z,13.07
2022-12-03T12:58:42.174Z,12.70
2022-12-03T12:59:43.873Z,13.33
2022-12-03T13:00:59.125Z,12.27
2022-12-03T13:02:04.596Z,12.33
2022-12-03T13:03:12.280Z,12.00
2022-12-03T13:04:22.592Z,13.00
2022-12-03T13:05:27.593Z,11.50
2022-12-03T13:06:31.456Z,13.30
2022-12-03T13:07:33.312Z,12.23
2022-12-03T13:08:42.071Z,12.67
2022-12-03T13:09:43.908Z,13.00
2022-12-03T13:10:45.865Z,14.07
2022-12-03T13:11:52.881Z,14.27
2022-12-03T13:12:54.771Z,13.37
2022-12-03T13:13:56.449Z,12.67
2022-12-03T13:15:00.857Z,13.77
2022-12-03T13:16:07.147Z,12.80
2022-12-03T13:17:18.661Z,13.13
2022-12-03T13:18:40.441Z,12.87
2022-12-03T13:19:48.260Z,11.13
2022-12-03T13:20:54.124Z,10.87
2022-12-03T13:21:58.463Z,12.10
2022-12-03T13:23:00.154Z,11.47
2022-12-03T13:24:02.020Z,12.27
2022-12-03T13:25:57.344Z,12.43
2022-12-03T13:26:52.013Z,12.53
2022-12-03T13:27:53.782Z,13.40
2022-12-03T13:28:57.740Z,11.73
2022-12-03T13:30:02.040Z,11.73
2022-12-03T13:31:31.483Z,11.37
2022-12-03T13:32:40.856Z,12.97
2022-12-03T13:33:42.804Z,12.33
2022-12-03T13:34:45.041Z,12.23
2022-12-03T13:35:46.878Z,11.70
2022-12-03T13:36:55.360Z,12.33
2022-12-03T13:37:59.606Z,12.83
2022-12-03T13:39:02.251Z,11.93
2022-12-03T13:40:26.027Z,11.93
2022-12-03T13:41:46.915Z,11.57
2022-12-03T13:42:48.663Z,11.90
2022-12-03T13:43:50.326Z,12.40
2022-12-03T13:44:53.277Z,12.20
2022-12-03T13:45:55.046Z,11.57
2022-12-03T13:46:56.809Z,12.07
2022-12-03T13:48:01.638Z,12.27
2022-12-03T13:49:03.472Z,12.03
2022-12-03T13:50:22.357Z,12.63
2022-12-03T13:51:27.158Z,13.30
2022-12-03T13:52:34.206Z,12.27